This is the latest recevied weather packets stored in our database for station/object BMCB-38. If no packets are shown the sender has not sent any weather packets the latest 10 day(s).
| Time | Temp. | Humidity | Pressure | Rain* | Wind** | Luminosity | Snow |
|---|---|---|---|---|---|---|---|
| 1777300838 | 17.78° C | 32% | 1021.3 hPa | 0 mm | - | 576 W/m² | - |
| 1777297235 | 17.78° C | 32% | 1021.9 hPa | 0 mm | - | 688 W/m² | - |
| 1777294238 | 17.22° C | 40% | 1022.3 hPa | 0 mm | - | 746 W/m² | - |
| 1777287037 | 15.56° C | 47% | 1023.1 hPa | 0 mm | - | 672 W/m² | - |
| 1777278638 | 11.11° C | 64% | 1024 hPa | 0 mm | - | 382 W/m² | - |
| 1777278035 | 11.11° C | 65% | 1024 hPa | 0 mm | - | 366 W/m² | - |
| 1777276838 | 10° C | 70% | 1024.1 hPa | 0 mm | - | 290 W/m² | - |
| 1777276237 | 9.44° C | 72% | 1024.2 hPa | 0 mm | - | 268 W/m² | - |
| 1777270836 | 5.56° C | 84% | 1024.6 hPa | 0 mm | - | 130 W/m² | - |
| 1777270234 | 5.56° C | 85% | 1024.5 hPa | 0 mm | - | 102 W/m² | - |
| 1777265436 | 5.56° C | 83% | 1024.1 hPa | 0 mm | - | 20 W/m² | - |
| 1777264836 | 5.56° C | 81% | 1024.1 hPa | 0 mm | - | 12 W/m² | - |
| 1777260038 | 6.11° C | 79% | 1024.1 hPa | 0 mm | - | 0 W/m² | - |
| 1777246832 | 10° C | 58% | 1024.6 hPa | 0 mm | - | 0 W/m² | - |
| 1777238433 | 11.67° C | 54% | 1024.1 hPa | 0 mm | - | 0 W/m² | - |
| 1777237233 | 12.22° C | 52% | 1024.2 hPa | 0 mm | - | 0 W/m² | - |
| 1777236032 | 12.22° C | 53% | 1024.2 hPa | 0 mm | - | 0 W/m² | - |
| 1777235435 | 12.78° C | 52% | 1024.2 hPa | 0 mm | - | 0 W/m² | - |
| 1777231839 | 13.89° C | 49% | 1023.9 hPa | 0 mm | - | 0 W/m² | - |
| 1777231233 | 13.89° C | 48% | 1023.8 hPa | 0 mm | - | 0 W/m² | - |
| 1777228236 | 15° C | 45% | 1023.3 hPa | 0 mm | - | 18 W/m² | - |
| 1777225835 | 15.56° C | 42% | 1023.1 hPa | 0 mm | - | 76 W/m² | - |
| 1777222231 | 16.11° C | 44% | 1023.3 hPa | 0 mm | - | 178 W/m² | - |
| 1777219229 | 16.67° C | 43% | 1023.4 hPa | 0 mm | - | 374 W/m² | - |
| 1777218036 | 17.22° C | 44% | 1023.6 hPa | 0 mm | - | 398 W/m² | - |
* Rain latest hour (hover to see other rain measurements)
** Current wind speed in m/s (hover to see current wind gust speed)